Time;durP1;ratioP1;P1;durP2;ratioP2;P2;SDS_P1;SDS_P2;PMS_P1;PMS_P2;Temp;Humidity;BMP_temperature;BMP_pressure;BME280_temperature;BME280_humidity;BME280_pressure;Samples;Min_cycle;Max_cycle;Signal;HPM_P1;HPM_P2
2023/12/16 00:00:59;;;;;;;7.25;5.40;;;;;;;;;;5030600;28;20463;-86
2023/12/16 00:03:24;;;;;;;9.85;6.63;;;;;;;;;;5013390;28;20079;-86
2023/12/16 00:05:49;;;;;;;9.40;6.18;;;;;;;;;;5013660;28;20447;-86
2023/12/16 00:08:15;;;;;;;9.23;6.57;;;;;;;;;;5029095;28;20030;-86
2023/12/16 00:10:40;;;;;;;7.38;5.40;;;;;;;;;;5030627;28;20044;-86
2023/12/16 00:13:05;;;;;;;6.70;5.10;;;;;;;;;;5030315;28;20022;-86
2023/12/16 00:15:31;;;;;;;4.97;3.78;;;;;;;;;;5030744;28;20021;-86
2023/12/16 00:17:56;;;;;;;4.90;3.72;;;;;;;;;;5030547;28;20102;-86
2023/12/16 00:20:21;;;;;;;5.20;3.60;;;;;;;;;;5029333;28;20398;-86
2023/12/16 00:22:47;;;;;;;4.68;3.60;;;;;;;;;;5030706;28;20033;-86
2023/12/16 00:25:12;;;;;;;4.45;3.70;;;;;;;;;;5030613;28;20557;-86
2023/12/16 00:27:37;;;;;;;4.18;3.78;;;;;;;;;;5019125;28;20021;-86
2023/12/16 00:30:06;;;;;;;5.57;4.00;;;;;;;;;;5028744;28;20020;-85
2023/12/16 00:32:32;;;;;;;5.38;3.70;;;;;;;;;;5009292;28;20042;-86
2023/12/16 00:34:57;;;;;;;11.27;6.20;;;;;;;;;;4992953;28;20562;-85
2023/12/16 00:37:23;;;;;;;13.25;7.18;;;;;;;;;;5007530;28;20113;-86
2023/12/16 00:39:48;;;;;;;10.65;5.75;;;;;;;;;;5014315;28;20045;-87
2023/12/16 00:42:14;;;;;;;6.70;4.25;;;;;;;;;;5030265;28;20497;-86
2023/12/16 00:44:39;;;;;;;8.50;5.10;;;;;;;;;;5027792;28;20025;-87
2023/12/16 00:47:04;;;;;;;3.45;3.15;;;;;;;;;;5028187;28;20434;-87
2023/12/16 00:49:30;;;;;;;8.18;5.07;;;;;;;;;;5030157;28;20060;-87
2023/12/16 00:51:56;;;;;;;5.95;4.10;;;;;;;;;;5030068;28;20383;-87
2023/12/16 00:54:21;;;;;;;4.45;3.70;;;;;;;;;;5021462;28;20079;-87
2023/12/16 00:56:49;;;;;;;6.40;4.40;;;;;;;;;;5029295;28;20442;-87
2023/12/16 00:59:14;;;;;;;6.40;4.60;;;;;;;;;;5022672;28;20022;-86
2023/12/16 01:01:40;;;;;;;5.75;4.05;;;;;;;;;;5011877;28;20075;-87
2023/12/16 01:04:05;;;;;;;10.10;6.38;;;;;;;;;;5029923;28;20433;-86
2023/12/16 01:06:31;;;;;;;5.78;4.45;;;;;;;;;;5012285;28;20089;-86
2023/12/16 01:08:56;;;;;;;5.43;4.18;;;;;;;;;;5028601;28;20067;-86
2023/12/16 01:11:21;;;;;;;5.57;4.30;;;;;;;;;;5012084;28;20436;-86
2023/12/16 01:13:49;;;;;;;4.82;3.88;;;;;;;;;;5011703;28;20049;-86
2023/12/16 01:16:14;;;;;;;5.65;4.75;;;;;;;;;;5032320;28;20022;-87
2023/12/16 01:18:40;;;;;;;4.35;3.90;;;;;;;;;;5012142;28;20040;-87
2023/12/16 01:21:05;;;;;;;3.42;3.20;;;;;;;;;;5028168;28;20030;-86
2023/12/16 01:23:34;;;;;;;4.00;3.55;;;;;;;;;;5027979;28;20387;-86
2023/12/16 01:25:59;;;;;;;5.05;3.78;;;;;;;;;;5000205;28;20438;-86
2023/12/16 01:28:24;;;;;;;3.00;2.70;;;;;;;;;;5028076;28;20075;-86
2023/12/16 01:30:51;;;;;;;3.53;2.85;;;;;;;;;;5029406;28;20029;-86
2023/12/16 01:33:16;;;;;;;5.10;3.60;;;;;;;;;;5029476;28;20072;-86
2023/12/16 01:35:41;;;;;;;4.43;3.60;;;;;;;;;;5015493;28;20534;-85
2023/12/16 01:38:07;;;;;;;7.40;4.25;;;;;;;;;;5027619;28;20104;-86
2023/12/16 01:40:32;;;;;;;4.03;3.47;;;;;;;;;;5008027;28;20030;-86
2023/12/16 01:42:57;;;;;;;7.10;4.90;;;;;;;;;;5009390;28;20102;-86
2023/12/16 01:45:23;;;;;;;11.32;5.85;;;;;;;;;;4994092;28;20022;-85
2023/12/16 01:47:49;;;;;;;6.95;4.78;;;;;;;;;;5011705;28;20028;-86
2023/12/16 01:50:14;;;;;;;10.68;6.80;;;;;;;;;;5028880;28;20535;-86
2023/12/16 01:52:41;;;;;;;6.80;4.68;;;;;;;;;;5028850;28;20084;-86
2023/12/16 01:55:07;;;;;;;7.00;4.72;;;;;;;;;;5028790;28;20078;-86
2023/12/16 01:57:32;;;;;;;4.45;3.58;;;;;;;;;;5010957;28;20052;-86
2023/12/16 01:59:57;;;;;;;7.18;4.93;;;;;;;;;;5027516;28;20027;-86
2023/12/16 02:02:24;;;;;;;7.90;4.88;;;;;;;;;;5028051;28;20025;-86
2023/12/16 02:04:50;;;;;;;5.97;4.35;;;;;;;;;;5027313;28;20508;-86
2023/12/16 02:07:15;;;;;;;3.95;3.38;;;;;;;;;;5028388;28;20129;-86
2023/12/16 02:09:40;;;;;;;6.90;4.50;;;;;;;;;;5027360;28;20021;-86
2023/12/16 02:12:05;;;;;;;7.28;4.70;;;;;;;;;;5026071;28;20021;-86
2023/12/16 02:14:32;;;;;;;6.88;4.95;;;;;;;;;;5010804;28;20326;-86
2023/12/16 02:16:57;;;;;;;6.50;5.10;;;;;;;;;;5010795;28;20026;-86
2023/12/16 02:19:26;;;;;;;3.28;2.97;;;;;;;;;;5010383;28;20028;-86
2023/12/16 02:21:52;;;;;;;2.63;2.42;;;;;;;;;;5010249;28;20029;-85
2023/12/16 02:24:17;;;;;;;3.15;2.85;;;;;;;;;;5028670;28;20029;-86
2023/12/16 02:26:42;;;;;;;2.60;2.40;;;;;;;;;;5028227;28;20017;-86
2023/12/16 02:29:08;;;;;;;2.80;2.60;;;;;;;;;;5027931;28;20041;-86
2023/12/16 02:31:33;;;;;;;2.65;2.45;;;;;;;;;;5027003;28;20021;-86
2023/12/16 02:33:59;;;;;;;2.70;2.50;;;;;;;;;;5027024;28;20064;-86
2023/12/16 02:36:24;;;;;;;5.05;3.08;;;;;;;;;;5028258;28;20014;-86
2023/12/16 02:38:49;;;;;;;3.70;2.50;;;;;;;;;;5025474;28;20108;-86
2023/12/16 02:41:15;;;;;;;5.18;2.92;;;;;;;;;;5026748;28;20087;-85
2023/12/16 02:43:40;;;;;;;2.95;2.60;;;;;;;;;;5010077;28;20364;-86
2023/12/16 02:46:06;;;;;;;4.22;3.25;;;;;;;;;;5028339;28;20476;-86
2023/12/16 02:48:31;;;;;;;2.97;2.58;;;;;;;;;;5028131;28;20219;-85
2023/12/16 02:50:56;;;;;;;5.07;3.35;;;;;;;;;;5026560;28;20028;-86
2023/12/16 02:53:22;;;;;;;4.65;3.22;;;;;;;;;;5027671;28;20032;-85
2023/12/16 02:55:47;;;;;;;10.52;5.97;;;;;;;;;;5009544;28;20431;-85
2023/12/16 02:58:12;;;;;;;9.95;5.65;;;;;;;;;;5009497;28;20776;-86
2023/12/16 03:00:38;;;;;;;4.75;3.22;;;;;;;;;;5027197;28;20057;-86
2023/12/16 03:03:03;;;;;;;3.08;2.88;;;;;;;;;;5027250;28;20017;-86
2023/12/16 03:05:28;;;;;;;4.05;2.75;;;;;;;;;;4993494;28;20124;-86
2023/12/16 03:07:54;;;;;;;3.03;2.33;;;;;;;;;;5027584;28;20013;-86
2023/12/16 03:10:19;;;;;;;2.72;2.33;;;;;;;;;;5007122;28;20061;-86
2023/12/16 03:12:45;;;;;;;2.08;1.98;;;;;;;;;;5025969;28;20021;-86
2023/12/16 03:15:10;;;;;;;2.65;2.45;;;;;;;;;;5027620;28;20362;-86
2023/12/16 03:17:35;;;;;;;2.17;2.00;;;;;;;;;;5027134;28;20021;-85
2023/12/16 03:20:01;;;;;;;1.90;1.80;;;;;;;;;;5009347;28;20045;-86
2023/12/16 03:22:26;;;;;;;2.38;2.10;;;;;;;;;;5025509;28;20083;-86
2023/12/16 03:24:51;;;;;;;3.67;3.35;;;;;;;;;;5026948;28;20068;-86
2023/12/16 03:27:17;;;;;;;5.50;5.00;;;;;;;;;;5023829;28;20025;-86
2023/12/16 03:29:42;;;;;;;2.65;2.45;;;;;;;;;;5027242;28;20108;-86
2023/12/16 03:32:07;;;;;;;2.90;2.70;;;;;;;;;;5009604;28;20279;-86
2023/12/16 03:34:33;;;;;;;2.50;2.33;;;;;;;;;;5027409;28;20072;-86
2023/12/16 03:36:58;;;;;;;3.50;3.20;;;;;;;;;;5026100;28;20480;-86
2023/12/16 03:39:23;;;;;;;3.60;3.20;;;;;;;;;;5027358;28;20021;-86
2023/12/16 03:41:48;;;;;;;2.63;2.42;;;;;;;;;;5026036;28;20038;-86
2023/12/16 03:44:14;;;;;;;2.95;2.75;;;;;;;;;;5009151;28;20133;-85
2023/12/16 03:46:39;;;;;;;3.00;2.80;;;;;;;;;;5027289;28;20060;-85
2023/12/16 03:49:04;;;;;;;3.08;2.78;;;;;;;;;;5026099;28;20227;-86
2023/12/16 03:51:30;;;;;;;2.92;2.72;;;;;;;;;;5026901;28;20036;-86
2023/12/16 03:53:55;;;;;;;3.55;3.22;;;;;;;;;;5009528;28;20103;-86
2023/12/16 03:56:20;;;;;;;2.75;2.55;;;;;;;;;;5027148;28;20100;-85
2023/12/16 03:58:46;;;;;;;3.92;3.47;;;;;;;;;;5009566;28;20051;-86
2023/12/16 04:01:13;;;;;;;3.45;3.13;;;;;;;;;;5027384;28;20064;-86
2023/12/16 04:03:41;;;;;;;2.95;2.75;;;;;;;;;;5026826;28;20033;-86
2023/12/16 04:06:10;;;;;;;5.07;4.22;;;;;;;;;;5009197;28;21147;-85
2023/12/16 04:08:35;;;;;;;3.08;2.80;;;;;;;;;;5026393;28;20120;-85
2023/12/16 04:11:01;;;;;;;4.82;3.70;;;;;;;;;;5003363;28;20151;-86
2023/12/16 04:13:26;;;;;;;3.13;2.70;;;;;;;;;;5025613;28;20029;-86
2023/12/16 04:15:52;;;;;;;2.78;2.50;;;;;;;;;;5025998;28;20026;-86
2023/12/16 04:18:18;;;;;;;2.40;2.20;;;;;;;;;;5025882;28;20103;-86
2023/12/16 04:20:43;;;;;;;2.67;2.50;;;;;;;;;;5026822;28;20503;-86
2023/12/16 04:23:09;;;;;;;3.50;3.20;;;;;;;;;;5017806;28;20022;-86
2023/12/16 04:25:34;;;;;;;2.60;2.40;;;;;;;;;;5027084;28;20048;-86
2023/12/16 04:27:59;;;;;;;2.63;2.42;;;;;;;;;;5025751;28;20033;-85
2023/12/16 04:30:25;;;;;;;4.38;2.63;;;;;;;;;;5027709;28;20021;-85
2023/12/16 04:32:50;;;;;;;2.70;2.50;;;;;;;;;;5012274;28;20045;-86
2023/12/16 04:35:16;;;;;;;3.67;3.30;;;;;;;;;;5030387;28;20383;-86
2023/12/16 04:37:41;;;;;;;2.70;2.50;;;;;;;;;;5030605;28;20534;-85
2023/12/16 04:40:07;;;;;;;2.88;2.67;;;;;;;;;;5012734;28;20033;-86
2023/12/16 04:42:32;;;;;;;3.08;2.78;;;;;;;;;;5029808;28;20079;-85
2023/12/16 04:44:57;;;;;;;2.72;2.53;;;;;;;;;;5028692;28;20024;-86
2023/12/16 04:47:23;;;;;;;3.33;2.92;;;;;;;;;;5028737;28;20045;-86
2023/12/16 04:49:48;;;;;;;2.60;2.40;;;;;;;;;;5030132;28;20071;-85
2023/12/16 04:52:14;;;;;;;2.75;2.55;;;;;;;;;;5029799;28;20048;-86
2023/12/16 04:54:41;;;;;;;3.10;2.90;;;;;;;;;;5029802;28;20018;-86
2023/12/16 04:57:06;;;;;;;2.55;2.35;;;;;;;;;;5029989;28;20033;-85
2023/12/16 04:59:31;;;;;;;2.65;2.45;;;;;;;;;;5028875;28;20029;-86
2023/12/16 05:01:56;;;;;;;2.40;2.20;;;;;;;;;;5029594;28;20430;-86
2023/12/16 05:04:22;;;;;;;2.72;2.53;;;;;;;;;;5016822;28;20116;-85
2023/12/16 05:06:47;;;;;;;3.30;3.00;;;;;;;;;;5029671;28;20028;-86
2023/12/16 05:09:13;;;;;;;3.08;2.78;;;;;;;;;;5029680;28;20045;-86
2023/12/16 05:11:38;;;;;;;2.92;2.72;;;;;;;;;;5012130;28;20387;-86
2023/12/16 05:14:04;;;;;;;2.40;2.20;;;;;;;;;;5011353;28;20650;-85
2023/12/16 05:16:29;;;;;;;4.07;3.40;;;;;;;;;;5028376;28;20028;-85
2023/12/16 05:18:55;;;;;;;5.07;3.33;;;;;;;;;;5029588;28;20475;-86
2023/12/16 05:21:20;;;;;;;4.63;3.65;;;;;;;;;;5029654;28;20120;-86
2023/12/16 05:23:46;;;;;;;9.10;5.53;;;;;;;;;;5010626;28;20080;-85
2023/12/16 05:26:11;;;;;;;7.47;4.65;;;;;;;;;;5021950;28;20025;-85
2023/12/16 05:28:37;;;;;;;13.57;7.38;;;;;;;;;;5016414;28;20041;-85
2023/12/16 05:31:02;;;;;;;8.07;5.50;;;;;;;;;;5022613;28;20057;-86
2023/12/16 05:33:27;;;;;;;8.07;5.13;;;;;;;;;;5035333;28;20385;-86
2023/12/16 05:35:53;;;;;;;3.92;2.65;;;;;;;;;;5039440;28;20387;-85
2023/12/16 05:38:18;;;;;;;2.70;2.50;;;;;;;;;;5021558;28;20023;-85
2023/12/16 05:40:43;;;;;;;5.75;4.22;;;;;;;;;;5020398;28;20021;-86
2023/12/16 05:43:09;;;;;;;6.82;4.72;;;;;;;;;;5021219;28;20021;-86
2023/12/16 05:45:34;;;;;;;6.70;5.90;;;;;;;;;;5038837;28;20013;-86
2023/12/16 05:48:00;;;;;;;6.05;5.45;;;;;;;;;;5019654;28;20017;-86
2023/12/16 05:50:25;;;;;;;3.70;3.40;;;;;;;;;;5019993;28;20021;-85
2023/12/16 05:52:50;;;;;;;4.93;4.53;;;;;;;;;;5038951;28;20017;-85
2023/12/16 05:55:16;;;;;;;3.60;2.90;;;;;;;;;;5019338;28;20013;-85
2023/12/16 05:57:41;;;;;;;2.97;2.67;;;;;;;;;;5021933;28;20053;-85
2023/12/16 06:00:08;;;;;;;3.13;2.88;;;;;;;;;;5020629;28;20368;-85
2023/12/16 06:02:33;;;;;;;3.03;2.83;;;;;;;;;;5015172;28;20025;-85
2023/12/16 06:04:59;;;;;;;3.40;3.10;;;;;;;;;;5039106;28;20322;-85
2023/12/16 06:07:24;;;;;;;3.45;3.15;;;;;;;;;;5020331;28;20024;-85
2023/12/16 06:09:49;;;;;;;3.53;3.20;;;;;;;;;;5020700;28;20036;-85
2023/12/16 06:12:15;;;;;;;3.65;3.20;;;;;;;;;;5002186;28;20045;-85
2023/12/16 06:14:40;;;;;;;6.57;5.20;;;;;;;;;;5030433;28;20029;-86
2023/12/16 06:17:05;;;;;;;4.97;4.32;;;;;;;;;;5035868;28;20021;-85
2023/12/16 06:19:31;;;;;;;4.07;3.78;;;;;;;;;;5028254;28;20204;-85
2023/12/16 06:21:56;;;;;;;4.20;3.70;;;;;;;;;;5027829;28;20060;-85
2023/12/16 06:24:21;;;;;;;7.03;5.90;;;;;;;;;;5010146;28;20033;-86
2023/12/16 06:26:47;;;;;;;6.35;4.93;;;;;;;;;;5025159;28;20354;-86
2023/12/16 06:29:12;;;;;;;3.20;2.95;;;;;;;;;;5028514;28;20017;-86
2023/12/16 06:31:38;;;;;;;3.65;3.35;;;;;;;;;;5028329;28;20013;-86
2023/12/16 06:34:03;;;;;;;8.18;5.85;;;;;;;;;;5028040;28;20044;-85
2023/12/16 06:36:28;;;;;;;14.30;9.00;;;;;;;;;;5009686;28;20063;-86
2023/12/16 06:38:53;;;;;;;3.92;3.60;;;;;;;;;;5010159;28;20021;-86
2023/12/16 06:41:19;;;;;;;4.05;3.60;;;;;;;;;;5027523;28;20041;-85
2023/12/16 06:43:44;;;;;;;4.80;4.30;;;;;;;;;;5027153;28;20022;-85
2023/12/16 06:46:09;;;;;;;3.45;3.10;;;;;;;;;;5018121;28;20029;-85
2023/12/16 06:48:35;;;;;;;5.63;3.90;;;;;;;;;;5027729;28;20124;-86
2023/12/16 06:51:01;;;;;;;4.72;4.28;;;;;;;;;;5027525;28;20435;-86
2023/12/16 06:53:26;;;;;;;5.15;4.50;;;;;;;;;;5025419;28;20036;-86
2023/12/16 06:55:53;;;;;;;6.63;5.25;;;;;;;;;;5020978;28;20021;-85
2023/12/16 06:58:19;;;;;;;3.92;3.58;;;;;;;;;;5004455;28;20057;-85
2023/12/16 07:00:44;;;;;;;5.70;5.10;;;;;;;;;;5026782;28;20479;-86
2023/12/16 07:03:10;;;;;;;6.35;5.38;;;;;;;;;;5026042;28;20070;-86
2023/12/16 07:05:35;;;;;;;3.20;2.92;;;;;;;;;;5027231;28;20025;-86
2023/12/16 07:08:01;;;;;;;4.30;3.90;;;;;;;;;;5026339;28;20030;-86
2023/12/16 07:10:27;;;;;;;10.93;6.93;;;;;;;;;;5026672;28;20010;-86
2023/12/16 07:12:53;;;;;;;3.55;3.22;;;;;;;;;;5026809;28;20491;-86
2023/12/16 07:15:19;;;;;;;10.05;7.57;;;;;;;;;;5008950;28;20052;-86
2023/12/16 07:17:44;;;;;;;6.88;5.88;;;;;;;;;;5027363;28;20040;-85
2023/12/16 07:20:10;;;;;;;4.95;4.47;;;;;;;;;;5025608;28;20024;-86
2023/12/16 07:22:35;;;;;;;2.80;2.60;;;;;;;;;;5015275;28;20065;-85
2023/12/16 07:25:00;;;;;;;3.22;2.92;;;;;;;;;;5026018;28;20392;-86
2023/12/16 07:27:25;;;;;;;2.83;2.63;;;;;;;;;;5025569;28;20235;-85
2023/12/16 07:29:52;;;;;;;4.63;3.20;;;;;;;;;;5025498;28;20056;-86
2023/12/16 07:32:18;;;;;;;7.63;4.40;;;;;;;;;;5009132;28;20434;-86
2023/12/16 07:34:43;;;;;;;18.42;8.20;;;;;;;;;;5017755;28;20036;-85
2023/12/16 07:37:09;;;;;;;21.02;11.55;;;;;;;;;;5026946;28;20018;-85
2023/12/16 07:39:34;;;;;;;18.92;12.55;;;;;;;;;;5026666;28;20520;-86
2023/12/16 07:42:00;;;;;;;8.20;6.03;;;;;;;;;;5033134;28;20023;-85
2023/12/16 07:44:27;;;;;;;5.28;4.38;;;;;;;;;;5021933;28;20148;-85
2023/12/16 07:46:52;;;;;;;5.30;4.60;;;;;;;;;;5024588;28;20026;-86
2023/12/16 07:49:19;;;;;;;6.90;5.85;;;;;;;;;;5026322;28;20014;-85
2023/12/16 07:51:44;;;;;;;4.32;3.92;;;;;;;;;;4998169;28;20395;-86
2023/12/16 07:54:11;;;;;;;7.40;5.32;;;;;;;;;;5009955;28;20013;-85
2023/12/16 07:56:36;;;;;;;11.75;7.60;;;;;;;;;;5024974;28;20033;-86
2023/12/16 07:59:01;;;;;;;10.30;6.97;;;;;;;;;;5008957;28;20026;-85
2023/12/16 08:01:27;;;;;;;18.30;11.48;;;;;;;;;;5027008;28;20037;-86
2023/12/16 08:03:52;;;;;;;16.63;10.75;;;;;;;;;;5026393;28;20391;-86
2023/12/16 08:06:17;;;;;;;8.65;6.75;;;;;;;;;;5026942;28;20021;-85
2023/12/16 08:08:43;;;;;;;4.40;4.00;;;;;;;;;;5013035;28;20032;-85
2023/12/16 08:11:10;;;;;;;3.65;3.33;;;;;;;;;;5011883;28;20501;-86
2023/12/16 08:13:35;;;;;;;8.55;5.75;;;;;;;;;;5012249;28;20758;-86
2023/12/16 08:16:01;;;;;;;4.18;3.78;;;;;;;;;;5029829;28;20049;-86
2023/12/16 08:18:26;;;;;;;7.68;5.28;;;;;;;;;;5013170;28;20060;-85
2023/12/16 08:20:52;;;;;;;9.88;6.65;;;;;;;;;;5031032;28;20032;-85
2023/12/16 08:23:18;;;;;;;5.95;4.90;;;;;;;;;;5030463;28;20375;-86
2023/12/16 08:25:43;;;;;;;4.05;3.30;;;;;;;;;;5012741;28;20100;-85
2023/12/16 08:28:08;;;;;;;3.92;3.53;;;;;;;;;;5030399;28;20025;-85
2023/12/16 08:30:34;;;;;;;3.25;2.95;;;;;;;;;;5030278;28;20030;-84
2023/12/16 08:32:59;;;;;;;3.90;3.58;;;;;;;;;;5012994;28;20069;-85
2023/12/16 08:35:25;;;;;;;3.53;3.22;;;;;;;;;;5011915;28;20037;-86
2023/12/16 08:37:50;;;;;;;3.83;3.25;;;;;;;;;;5029747;28;20618;-85
2023/12/16 08:40:15;;;;;;;3.67;3.38;;;;;;;;;;5012220;28;20029;-86
2023/12/16 08:42:42;;;;;;;4.05;3.63;;;;;;;;;;5029777;28;20597;-85
2023/12/16 08:45:08;;;;;;;3.70;3.40;;;;;;;;;;5029889;28;20032;-85
2023/12/16 08:47:34;;;;;;;5.15;4.65;;;;;;;;;;5013784;28;20021;-85
2023/12/16 08:49:59;;;;;;;3.85;3.55;;;;;;;;;;5029899;28;20493;-86
2023/12/16 08:52:26;;;;;;;4.10;3.70;;;;;;;;;;5011781;28;20025;-86
2023/12/16 08:54:52;;;;;;;4.03;3.67;;;;;;;;;;5027734;28;20124;-86
2023/12/16 08:57:17;;;;;;;4.63;3.60;;;;;;;;;;5029329;28;20167;-86
2023/12/16 08:59:42;;;;;;;3.75;3.45;;;;;;;;;;5011846;28;20471;-86
2023/12/16 09:02:08;;;;;;;6.82;5.13;;;;;;;;;;5012053;28;20547;-86
2023/12/16 09:04:33;;;;;;;4.90;4.43;;;;;;;;;;5015821;28;20032;-86
2023/12/16 09:06:58;;;;;;;4.82;4.32;;;;;;;;;;5029953;28;20105;-86
2023/12/16 09:09:24;;;;;;;4.40;4.00;;;;;;;;;;5029789;28;20029;-86
2023/12/16 09:11:49;;;;;;;4.30;3.90;;;;;;;;;;5029815;28;20399;-86
2023/12/16 09:14:14;;;;;;;4.93;4.53;;;;;;;;;;5023488;28;20071;-86
2023/12/16 09:16:40;;;;;;;6.00;5.40;;;;;;;;;;5029455;28;20033;-86
2023/12/16 09:19:07;;;;;;;5.00;4.50;;;;;;;;;;5008012;28;20030;-86
2023/12/16 09:21:32;;;;;;;4.55;4.15;;;;;;;;;;5010121;28;20037;-85
2023/12/16 09:23:58;;;;;;;5.15;4.65;;;;;;;;;;5011499;28;20025;-86
2023/12/16 09:26:23;;;;;;;5.68;5.18;;;;;;;;;;5028003;28;20056;-86
2023/12/16 09:28:49;;;;;;;6.28;5.78;;;;;;;;;;5010154;28;20026;-86
2023/12/16 09:31:15;;;;;;;11.50;7.75;;;;;;;;;;5011317;28;20033;-86
2023/12/16 09:33:41;;;;;;;13.68;7.10;;;;;;;;;;5012644;28;20419;-85
2023/12/16 09:36:10;;;;;;;9.75;6.43;;;;;;;;;;5029308;28;20018;-86
2023/12/16 09:38:35;;;;;;;9.15;6.25;;;;;;;;;;5027282;28;20021;-86
2023/12/16 09:41:01;;;;;;;12.43;8.85;;;;;;;;;;5010810;28;20493;-86
2023/12/16 09:43:28;;;;;;;8.23;6.38;;;;;;;;;;5027690;28;20029;-86
2023/12/16 09:45:53;;;;;;;7.93;6.68;;;;;;;;;;5029032;28;20033;-86
2023/12/16 09:48:20;;;;;;;5.35;4.85;;;;;;;;;;5029842;28;20348;-86
2023/12/16 09:50:45;;;;;;;6.55;5.35;;;;;;;;;;5028895;28;20113;-86
2023/12/16 09:53:11;;;;;;;4.82;4.43;;;;;;;;;;5029021;28;20108;-86
2023/12/16 09:55:36;;;;;;;5.40;4.90;;;;;;;;;;5027440;28;20491;-86
2023/12/16 09:58:02;;;;;;;5.18;4.65;;;;;;;;;;4994906;28;20025;-86
2023/12/16 10:00:28;;;;;;;7.38;5.95;;;;;;;;;;5021170;28;20116;-86
2023/12/16 10:02:56;;;;;;;5.53;5.00;;;;;;;;;;5029117;28;20451;-86
2023/12/16 10:05:25;;;;;;;6.32;4.75;;;;;;;;;;5007692;28;20032;-86
2023/12/16 10:07:51;;;;;;;8.48;6.18;;;;;;;;;;4991366;28;20084;-86
2023/12/16 10:10:16;;;;;;;7.68;6.18;;;;;;;;;;4998452;28;20033;-85
2023/12/16 10:12:42;;;;;;;5.93;5.32;;;;;;;;;;5010629;28;20025;-86
2023/12/16 10:15:09;;;;;;;8.32;6.07;;;;;;;;;;5013158;28;20475;-86
2023/12/16 10:17:34;;;;;;;5.68;5.18;;;;;;;;;;5010197;28;20403;-86
2023/12/16 10:20:02;;;;;;;9.38;6.85;;;;;;;;;;5025229;28;20021;-86
2023/12/16 10:22:28;;;;;;;8.25;7.32;;;;;;;;;;5010858;28;20544;-86
2023/12/16 10:24:55;;;;;;;7.07;5.43;;;;;;;;;;5010734;28;20071;-86
2023/12/16 10:27:23;;;;;;;5.85;5.25;;;;;;;;;;5029618;28;20432;-86
2023/12/16 10:29:48;;;;;;;5.93;5.18;;;;;;;;;;5010301;28;20475;-85
2023/12/16 10:32:13;;;;;;;5.90;5.30;;;;;;;;;;5009965;28;20384;-85
2023/12/16 10:34:38;;;;;;;4.95;4.47;;;;;;;;;;5009530;28;20088;-85
2023/12/16 10:37:05;;;;;;;4.90;4.40;;;;;;;;;;5027799;28;20030;-85
2023/12/16 10:39:30;;;;;;;5.63;5.13;;;;;;;;;;5013086;28;20036;-86
2023/12/16 10:41:56;;;;;;;4.70;4.30;;;;;;;;;;5024654;28;20029;-86
2023/12/16 10:44:21;;;;;;;4.38;3.97;;;;;;;;;;5028576;28;20032;-86
2023/12/16 10:46:51;;;;;;;4.85;3.78;;;;;;;;;;5009940;28;20127;-86
2023/12/16 10:49:17;;;;;;;6.80;5.70;;;;;;;;;;5027073;28;20128;-85
2023/12/16 10:51:45;;;;;;;8.23;6.28;;;;;;;;;;5027605;28;20076;-85
2023/12/16 10:54:32;;;;;;;6.35;5.60;;;;;;;;;;5027221;28;20434;-85
2023/12/16 10:57:19;;;;;;;8.95;6.60;;;;;;;;;;5026526;28;20029;-85
2023/12/16 10:59:48;;;;;;;5.40;4.90;;;;;;;;;;5017455;28;20094;-85
2023/12/16 11:02:21;;;;;;;10.88;9.70;;;;;;;;;;5027641;28;20029;-85
2023/12/16 11:04:50;;;;;;;7.32;6.63;;;;;;;;;;5017574;28;20029;-85
2023/12/16 11:07:16;;;;;;;;;;;;;;;;;;5034038;28;20021;-85
2023/12/16 11:09:41;;;;;;;7.10;6.40;;;;;;;;;;5027565;28;19951;-85
2023/12/16 11:12:07;;;;;;;7.72;6.57;;;;;;;;;;5018296;28;20029;-85
2023/12/16 11:14:35;;;;;;;5.50;5.00;;;;;;;;;;5027004;28;20018;-85
2023/12/16 11:17:19;;;;;;;6.82;6.00;;;;;;;;;;5026208;28;20541;-86
2023/12/16 11:19:45;;;;;;;9.15;8.10;;;;;;;;;;5023375;28;20025;-86
2023/12/16 11:22:11;;;;;;;6.80;6.03;;;;;;;;;;5009531;28;20082;-85
2023/12/16 11:24:42;;;;;;;7.72;6.38;;;;;;;;;;5009096;28;20651;-85
2023/12/16 11:27:09;;;;;;;10.63;7.78;;;;;;;;;;5026452;28;20395;-85
2023/12/16 11:29:34;;;;;;;6.05;5.45;;;;;;;;;;5006896;28;20021;-85
2023/12/16 11:32:01;;;;;;;11.82;10.55;;;;;;;;;;4993420;28;20552;-85
2023/12/16 11:34:47;;;;;;;8.40;6.47;;;;;;;;;;5006898;28;20128;-85
2023/12/16 11:37:12;;;;;;;6.88;6.18;;;;;;;;;;5004967;28;20041;-85
2023/12/16 11:39:39;;;;;;;11.27;9.57;;;;;;;;;;4988611;28;20022;-85
2023/12/16 11:42:05;;;;;;;11.30;9.73;;;;;;;;;;5010923;28;20120;-85
2023/12/16 11:44:49;;;;;;;7.80;6.50;;;;;;;;;;5011157;28;20544;-85
2023/12/16 11:47:24;;;;;;;7.30;5.93;;;;;;;;;;5009366;28;20080;-85
2023/12/16 11:49:50;;;;;;;8.02;7.13;;;;;;;;;;4990830;28;20028;-85
2023/12/16 11:52:17;;;;;;;11.27;9.20;;;;;;;;;;4998956;28;20054;-85
2023/12/16 11:54:43;;;;;;;17.05;11.85;;;;;;;;;;4992850;28;20064;-86
2023/12/16 11:57:08;;;;;;;14.13;11.18;;;;;;;;;;4994523;28;20053;-85
2023/12/16 11:59:34;;;;;;;12.32;10.18;;;;;;;;;;5011065;28;20014;-85
2023/12/16 12:01:59;;;;;;;14.00;10.50;;;;;;;;;;5001157;28;20071;-85
2023/12/16 12:04:24;;;;;;;15.07;11.40;;;;;;;;;;5008265;28;20026;-86
2023/12/16 12:06:50;;;;;;;16.95;12.80;;;;;;;;;;5008840;28;20029;-85
2023/12/16 12:09:16;;;;;;;14.65;11.43;;;;;;;;;;5008913;28;20396;-85
2023/12/16 12:11:41;;;;;;;15.38;10.63;;;;;;;;;;5009421;28;20049;-86
2023/12/16 12:14:07;;;;;;;35.15;22.65;;;;;;;;;;5010547;28;20487;-85
2023/12/16 12:16:32;;;;;;;38.85;22.13;;;;;;;;;;4994196;28;20180;-85
2023/12/16 12:18:58;;;;;;;32.45;18.83;;;;;;;;;;5009522;28;20017;-85
2023/12/16 12:21:23;;;;;;;23.08;15.30;;;;;;;;;;5010136;28;20782;-85
2023/12/16 12:23:49;;;;;;;30.40;19.08;;;;;;;;;;5008509;28;20484;-85
2023/12/16 12:26:18;;;;;;;25.55;16.75;;;;;;;;;;5000498;28;20396;-86
2023/12/16 12:28:54;;;;;;;40.00;24.73;;;;;;;;;;5008860;28;20017;-85
2023/12/16 12:31:19;;;;;;;51.13;27.98;;;;;;;;;;4994497;28;20058;-86
2023/12/16 12:33:44;;;;;;;31.35;19.83;;;;;;;;;;5021928;28;20076;-85
2023/12/16 12:36:10;;;;;;;29.88;19.08;;;;;;;;;;5028739;28;20025;-85
2023/12/16 12:38:36;;;;;;;26.48;17.38;;;;;;;;;;5027488;28;20118;-85
2023/12/16 12:41:03;;;;;;;32.88;21.20;;;;;;;;;;4989275;28;20681;-85
2023/12/16 12:43:33;;;;;;;27.40;18.88;;;;;;;;;;5023406;28;20657;-85
2023/12/16 12:46:17;;;;;;;15.90;12.48;;;;;;;;;;5011406;28;20599;-86
2023/12/16 12:48:53;;;;;;;18.92;14.15;;;;;;;;;;5023336;28;20022;-85
2023/12/16 12:51:18;;;;;;;21.08;15.75;;;;;;;;;;5007574;28;20075;-85
2023/12/16 12:53:53;;;;;;;33.88;19.20;;;;;;;;;;5006366;28;20574;-85
2023/12/16 12:56:19;;;;;;;21.70;15.38;;;;;;;;;;5009835;28;20056;-85
2023/12/16 12:58:44;;;;;;;15.60;11.75;;;;;;;;;;5026358;28;20025;-86
2023/12/16 13:01:09;;;;;;;26.92;18.92;;;;;;;;;;5009455;28;20412;-86
2023/12/16 13:03:35;;;;;;;16.35;13.23;;;;;;;;;;5025058;28;20055;-86
2023/12/16 13:06:01;;;;;;;18.95;15.18;;;;;;;;;;5021235;28;20665;-89
2023/12/16 13:08:26;;;;;;;15.45;12.20;;;;;;;;;;5030073;28;20403;-86
2023/12/16 13:10:52;;;;;;;29.67;20.38;;;;;;;;;;5025926;28;20010;-86
2023/12/16 13:13:20;;;;;;;26.10;19.20;;;;;;;;;;5026867;28;20021;-86
2023/12/16 13:15:47;;;;;;;40.30;25.10;;;;;;;;;;5007369;28;20117;-86
2023/12/16 13:18:13;;;;;;;38.20;25.45;;;;;;;;;;5018993;28;20104;-86
2023/12/16 13:20:38;;;;;;;33.22;20.48;;;;;;;;;;4991105;28;20500;-86
2023/12/16 13:23:03;;;;;;;43.90;27.45;;;;;;;;;;5016965;28;20395;-84
2023/12/16 13:25:29;;;;;;;51.85;31.42;;;;;;;;;;5024246;28;20014;-84
2023/12/16 13:27:54;;;;;;;33.72;22.90;;;;;;;;;;5029078;28;20102;-85
2023/12/16 13:30:19;;;;;;;37.67;26.58;;;;;;;;;;5012171;28;20021;-85
2023/12/16 13:32:44;;;;;;;30.73;21.70;;;;;;;;;;5030085;28;20046;-85
2023/12/16 13:35:10;;;;;;;26.88;20.08;;;;;;;;;;5010769;28;20021;-85
2023/12/16 13:37:36;;;;;;;27.48;20.35;;;;;;;;;;5012555;28;20021;-84
2023/12/16 13:40:05;;;;;;;28.30;22.42;;;;;;;;;;5029137;28;20043;-84
2023/12/16 13:42:31;;;;;;;52.83;33.20;;;;;;;;;;5030636;28;20515;-87
2023/12/16 13:44:56;;;;;;;57.22;36.58;;;;;;;;;;5005717;28;20022;-85
2023/12/16 13:47:21;;;;;;;52.55;33.85;;;;;;;;;;5013744;28;20372;-85
2023/12/16 13:49:47;;;;;;;53.78;35.63;;;;;;;;;;5034703;28;20017;-84
2023/12/16 13:52:12;;;;;;;47.88;31.80;;;;;;;;;;5014835;28;20025;-85
2023/12/16 13:54:38;;;;;;;57.38;37.95;;;;;;;;;;5032266;28;20109;-85
2023/12/16 13:57:04;;;;;;;46.45;31.90;;;;;;;;;;5029283;28;20049;-85
2023/12/16 13:59:32;;;;;;;59.50;34.78;;;;;;;;;;5029549;28;20067;-85
2023/12/16 14:01:57;;;;;;;46.78;30.38;;;;;;;;;;5015612;28;20071;-84
2023/12/16 14:04:23;;;;;;;26.52;20.17;;;;;;;;;;5029972;28;20030;-84
2023/12/16 14:06:48;;;;;;;21.30;16.30;;;;;;;;;;5034992;28;20491;-85
2023/12/16 14:09:14;;;;;;;26.48;19.40;;;;;;;;;;5025610;28;20021;-84
2023/12/16 14:11:40;;;;;;;24.67;18.00;;;;;;;;;;5011034;28;20041;-84
2023/12/16 14:14:06;;;;;;;22.55;16.73;;;;;;;;;;5006487;28;20025;-84
2023/12/16 14:16:31;;;;;;;20.02;16.08;;;;;;;;;;5010034;28;20565;-85
2023/12/16 14:18:57;;;;;;;33.42;21.52;;;;;;;;;;5028667;28;20446;-85
2023/12/16 14:21:22;;;;;;;19.83;15.20;;;;;;;;;;5026126;28;20808;-85
2023/12/16 14:23:50;;;;;;;21.33;15.88;;;;;;;;;;5012473;28;20017;-85
2023/12/16 14:26:15;;;;;;;25.67;17.92;;;;;;;;;;5021973;28;20025;-85
2023/12/16 14:28:40;;;;;;;28.83;20.55;;;;;;;;;;5027256;28;20620;-84
2023/12/16 14:31:06;;;;;;;22.83;16.83;;;;;;;;;;5010304;28;20025;-84